sensor_id;sensor_type;location;lat;lon;timestamp;temperature;humidity
23251;DHT22;11794;49.730;10.088;2022-07-23T00:00:29;21.30;99.90
23251;DHT22;11794;49.730;10.088;2022-07-23T00:02:55;21.10;99.90
23251;DHT22;11794;49.730;10.088;2022-07-23T00:05:20;21.00;99.90
23251;DHT22;11794;49.730;10.088;2022-07-23T00:07:46;20.90;99.90
23251;DHT22;11794;49.730;10.088;2022-07-23T00:10:11;21.10;99.90
23251;DHT22;11794;49.730;10.088;2022-07-23T00:12:38;21.20;99.90
23251;DHT22;11794;49.730;10.088;2022-07-23T00:15:05;21.20;99.90
23251;DHT22;11794;49.730;10.088;2022-07-23T00:17:31;21.20;99.90
23251;DHT22;11794;49.730;10.088;2022-07-23T00:19:57;21.20;99.90
23251;DHT22;11794;49.730;10.088;2022-07-23T00:22:22;21.30;99.90
23251;DHT22;11794;49.730;10.088;2022-07-23T00:24:48;21.30;99.90
23251;DHT22;11794;49.730;10.088;2022-07-23T00:27:14;21.20;99.90
23251;DHT22;11794;49.730;10.088;2022-07-23T00:29:39;21.10;99.90
23251;DHT22;11794;49.730;10.088;2022-07-23T00:32:05;21.10;99.90
23251;DHT22;11794;49.730;10.088;2022-07-23T00:34:30;21.00;99.90
23251;DHT22;11794;49.730;10.088;2022-07-23T00:36:56;21.10;99.90
23251;DHT22;11794;49.730;10.088;2022-07-23T00:39:22;21.10;99.90
23251;DHT22;11794;49.730;10.088;2022-07-23T00:41:48;21.10;99.90
23251;DHT22;11794;49.730;10.088;2022-07-23T00:44:21;21.10;99.90
23251;DHT22;11794;49.730;10.088;2022-07-23T00:46:55;21.30;99.90
23251;DHT22;11794;49.730;10.088;2022-07-23T00:49:25;21.30;99.90
23251;DHT22;11794;49.730;10.088;2022-07-23T00:51:52;21.30;99.90
23251;DHT22;11794;49.730;10.088;2022-07-23T00:54:18;21.40;99.90
23251;DHT22;11794;49.730;10.088;2022-07-23T00:56:46;21.40;99.90
23251;DHT22;11794;49.730;10.088;2022-07-23T00:59:11;21.20;99.90
23251;DHT22;11794;49.730;10.088;2022-07-23T01:01:38;21.10;99.90
23251;DHT22;11794;49.730;10.088;2022-07-23T01:04:04;21.20;99.90
23251;DHT22;11794;49.730;10.088;2022-07-23T01:06:34;20.90;99.90
23251;DHT22;11794;49.730;10.088;2022-07-23T01:09:00;20.70;99.90
23251;DHT22;11794;49.730;10.088;2022-07-23T01:11:26;20.60;99.90
23251;DHT22;11794;49.730;10.088;2022-07-23T01:13:52;20.60;99.90
23251;DHT22;11794;49.730;10.088;2022-07-23T01:16:19;20.60;99.90
23251;DHT22;11794;49.730;10.088;2022-07-23T01:18:44;20.60;99.90
23251;DHT22;11794;49.730;10.088;2022-07-23T01:21:12;20.60;99.90
23251;DHT22;11794;49.730;10.088;2022-07-23T01:23:40;20.60;99.90
23251;DHT22;11794;49.730;10.088;2022-07-23T01:26:06;20.60;99.90
23251;DHT22;11794;49.730;10.088;2022-07-23T01:28:31;20.60;99.90
23251;DHT22;11794;49.730;10.088;2022-07-23T01:30:58;20.50;99.90
23251;DHT22;11794;49.730;10.088;2022-07-23T01:33:23;20.40;99.90
23251;DHT22;11794;49.730;10.088;2022-07-23T01:35:49;20.40;99.90
23251;DHT22;11794;49.730;10.088;2022-07-23T01:38:14;20.50;99.90
23251;DHT22;11794;49.730;10.088;2022-07-23T01:40:40;20.50;99.90
23251;DHT22;11794;49.730;10.088;2022-07-23T01:43:05;20.40;99.90
23251;DHT22;11794;49.730;10.088;2022-07-23T01:45:31;20.50;99.90
23251;DHT22;11794;49.730;10.088;2022-07-23T01:47:56;20.40;99.90
23251;DHT22;11794;49.730;10.088;2022-07-23T01:50:22;20.40;99.90
23251;DHT22;11794;49.730;10.088;2022-07-23T01:52:47;20.50;99.90
23251;DHT22;11794;49.730;10.088;2022-07-23T01:55:13;20.50;99.90
23251;DHT22;11794;49.730;10.088;2022-07-23T01:57:38;20.50;99.90
23251;DHT22;11794;49.730;10.088;2022-07-23T02:00:04;20.40;99.90
23251;DHT22;11794;49.730;10.088;2022-07-23T02:02:30;20.30;99.90
23251;DHT22;11794;49.730;10.088;2022-07-23T02:04:55;20.30;99.90
23251;DHT22;11794;49.730;10.088;2022-07-23T02:07:21;20.20;99.90
23251;DHT22;11794;49.730;10.088;2022-07-23T02:09:46;20.10;99.90
23251;DHT22;11794;49.730;10.088;2022-07-23T02:12:12;20.00;99.90
23251;DHT22;11794;49.730;10.088;2022-07-23T02:14:37;20.00;99.90
23251;DHT22;11794;49.730;10.088;2022-07-23T02:17:03;19.90;99.90
23251;DHT22;11794;49.730;10.088;2022-07-23T02:19:28;20.00;99.90
23251;DHT22;11794;49.730;10.088;2022-07-23T02:21:54;20.10;99.90
23251;DHT22;11794;49.730;10.088;2022-07-23T02:24:20;20.10;99.90
23251;DHT22;11794;49.730;10.088;2022-07-23T02:26:46;20.10;99.90
23251;DHT22;11794;49.730;10.088;2022-07-23T02:29:12;20.00;99.90
23251;DHT22;11794;49.730;10.088;2022-07-23T02:31:37;20.00;99.90
23251;DHT22;11794;49.730;10.088;2022-07-23T02:34:03;20.00;99.90
23251;DHT22;11794;49.730;10.088;2022-07-23T02:36:29;19.90;99.90
23251;DHT22;11794;49.730;10.088;2022-07-23T02:38:55;19.90;99.90
23251;DHT22;11794;49.730;10.088;2022-07-23T02:41:20;19.90;99.90
23251;DHT22;11794;49.730;10.088;2022-07-23T02:43:46;19.80;99.90
23251;DHT22;11794;49.730;10.088;2022-07-23T02:46:11;19.70;99.90
23251;DHT22;11794;49.730;10.088;2022-07-23T02:48:37;19.60;99.90
23251;DHT22;11794;49.730;10.088;2022-07-23T02:51:02;19.60;99.90
23251;DHT22;11794;49.730;10.088;2022-07-23T02:53:28;19.50;99.90
23251;DHT22;11794;49.730;10.088;2022-07-23T02:55:54;19.40;99.90
23251;DHT22;11794;49.730;10.088;2022-07-23T02:58:19;19.30;99.90
23251;DHT22;11794;49.730;10.088;2022-07-23T03:00:45;19.20;99.90
23251;DHT22;11794;49.730;10.088;2022-07-23T03:03:10;19.20;99.90
23251;DHT22;11794;49.730;10.088;2022-07-23T03:05:36;19.20;99.90
23251;DHT22;11794;49.730;10.088;2022-07-23T03:08:02;19.30;99.90
23251;DHT22;11794;49.730;10.088;2022-07-23T03:10:28;19.20;99.90
23251;DHT22;11794;49.730;10.088;2022-07-23T03:12:53;19.10;99.90
23251;DHT22;11794;49.730;10.088;2022-07-23T03:15:19;19.00;99.90
23251;DHT22;11794;49.730;10.088;2022-07-23T03:17:44;19.00;99.90
23251;DHT22;11794;49.730;10.088;2022-07-23T03:20:10;19.10;99.90
23251;DHT22;11794;49.730;10.088;2022-07-23T03:22:35;19.10;99.90
23251;DHT22;11794;49.730;10.088;2022-07-23T03:25:01;19.10;99.90
23251;DHT22;11794;49.730;10.088;2022-07-23T03:27:29;19.20;99.90
23251;DHT22;11794;49.730;10.088;2022-07-23T03:29:56;19.20;99.90
23251;DHT22;11794;49.730;10.088;2022-07-23T03:32:22;19.10;99.90
23251;DHT22;11794;49.730;10.088;2022-07-23T03:34:48;19.10;99.90
23251;DHT22;11794;49.730;10.088;2022-07-23T03:37:15;19.10;99.90
23251;DHT22;11794;49.730;10.088;2022-07-23T03:39:40;19.10;99.90
23251;DHT22;11794;49.730;10.088;2022-07-23T03:42:06;19.20;99.90
23251;DHT22;11794;49.730;10.088;2022-07-23T03:44:32;19.10;99.90
23251;DHT22;11794;49.730;10.088;2022-07-23T03:46:58;19.10;99.90
23251;DHT22;11794;49.730;10.088;2022-07-23T03:49:23;19.00;99.90
23251;DHT22;11794;49.730;10.088;2022-07-23T03:51:49;19.00;99.90
23251;DHT22;11794;49.730;10.088;2022-07-23T03:54:15;19.00;99.90
23251;DHT22;11794;49.730;10.088;2022-07-23T03:56:40;19.10;99.90
23251;DHT22;11794;49.730;10.088;2022-07-23T03:59:08;19.10;99.90
23251;DHT22;11794;49.730;10.088;2022-07-23T04:01:34;19.20;99.90
23251;DHT22;11794;49.730;10.088;2022-07-23T04:03:59;19.20;99.90
23251;DHT22;11794;49.730;10.088;2022-07-23T04:06:25;19.20;99.90
23251;DHT22;11794;49.730;10.088;2022-07-23T04:08:50;19.20;99.90
23251;DHT22;11794;49.730;10.088;2022-07-23T04:11:16;19.30;99.90
23251;DHT22;11794;49.730;10.088;2022-07-23T04:13:41;19.40;99.90
23251;DHT22;11794;49.730;10.088;2022-07-23T04:16:07;19.40;99.90
23251;DHT22;11794;49.730;10.088;2022-07-23T04:18:33;19.40;99.90
23251;DHT22;11794;49.730;10.088;2022-07-23T04:20:59;19.40;99.90
23251;DHT22;11794;49.730;10.088;2022-07-23T04:23:24;19.50;99.90
23251;DHT22;11794;49.730;10.088;2022-07-23T04:25:50;19.40;99.90
23251;DHT22;11794;49.730;10.088;2022-07-23T04:28:15;19.40;99.90
23251;DHT22;11794;49.730;10.088;2022-07-23T04:30:41;19.40;99.90
23251;DHT22;11794;49.730;10.088;2022-07-23T04:33:06;19.40;99.90
23251;DHT22;11794;49.730;10.088;2022-07-23T04:35:36;19.40;99.90
23251;DHT22;11794;49.730;10.088;2022-07-23T04:38:02;19.50;99.90
23251;DHT22;11794;49.730;10.088;2022-07-23T04:40:28;19.50;99.90
23251;DHT22;11794;49.730;10.088;2022-07-23T04:42:54;19.60;99.90
23251;DHT22;11794;49.730;10.088;2022-07-23T04:45:20;19.60;99.90
23251;DHT22;11794;49.730;10.088;2022-07-23T04:47:46;19.70;99.90
23251;DHT22;11794;49.730;10.088;2022-07-23T04:50:11;19.80;99.90
23251;DHT22;11794;49.730;10.088;2022-07-23T04:52:37;19.90;99.90
23251;DHT22;11794;49.730;10.088;2022-07-23T04:55:03;19.90;99.90
23251;DHT22;11794;49.730;10.088;2022-07-23T04:57:28;19.90;99.90
23251;DHT22;11794;49.730;10.088;2022-07-23T04:59:54;19.90;99.90
23251;DHT22;11794;49.730;10.088;2022-07-23T05:02:19;20.10;99.90
23251;DHT22;11794;49.730;10.088;2022-07-23T05:04:45;20.00;99.90
23251;DHT22;11794;49.730;10.088;2022-07-23T05:07:11;19.80;99.90
23251;DHT22;11794;49.730;10.088;2022-07-23T05:09:37;20.00;99.90
23251;DHT22;11794;49.730;10.088;2022-07-23T05:12:03;20.10;99.90
23251;DHT22;11794;49.730;10.088;2022-07-23T05:14:28;20.30;99.90
23251;DHT22;11794;49.730;10.088;2022-07-23T05:16:54;20.30;99.90
23251;DHT22;11794;49.730;10.088;2022-07-23T05:19:19;20.30;99.90
23251;DHT22;11794;49.730;10.088;2022-07-23T05:21:45;20.30;99.90
23251;DHT22;11794;49.730;10.088;2022-07-23T05:24:11;20.40;99.90
23251;DHT22;11794;49.730;10.088;2022-07-23T05:26:36;20.40;99.90
23251;DHT22;11794;49.730;10.088;2022-07-23T05:29:02;20.50;99.90
23251;DHT22;11794;49.730;10.088;2022-07-23T05:31:27;20.60;99.90
23251;DHT22;11794;49.730;10.088;2022-07-23T05:33:53;20.70;99.90
23251;DHT22;11794;49.730;10.088;2022-07-23T05:36:18;20.80;99.90
23251;DHT22;11794;49.730;10.088;2022-07-23T05:38:44;20.90;99.90
23251;DHT22;11794;49.730;10.088;2022-07-23T05:41:09;21.00;99.90
23251;DHT22;11794;49.730;10.088;2022-07-23T05:43:35;21.00;99.90
23251;DHT22;11794;49.730;10.088;2022-07-23T05:46:00;21.00;99.90
23251;DHT22;11794;49.730;10.088;2022-07-23T05:48:26;21.10;99.90
23251;DHT22;11794;49.730;10.088;2022-07-23T05:50:51;21.10;99.90
23251;DHT22;11794;49.730;10.088;2022-07-23T05:53:17;21.00;99.90
23251;DHT22;11794;49.730;10.088;2022-07-23T05:55:43;21.00;99.90
23251;DHT22;11794;49.730;10.088;2022-07-23T05:58:09;21.00;99.90
23251;DHT22;11794;49.730;10.088;2022-07-23T06:00:34;21.10;99.90
23251;DHT22;11794;49.730;10.088;2022-07-23T06:03:00;21.00;99.90
23251;DHT22;11794;49.730;10.088;2022-07-23T06:05:25;21.00;99.90
23251;DHT22;11794;49.730;10.088;2022-07-23T06:07:51;21.00;99.90
23251;DHT22;11794;49.730;10.088;2022-07-23T06:10:18;20.90;99.90
23251;DHT22;11794;49.730;10.088;2022-07-23T06:12:44;20.90;99.90
23251;DHT22;11794;49.730;10.088;2022-07-23T06:15:09;20.90;99.90
23251;DHT22;11794;49.730;10.088;2022-07-23T06:17:35;20.80;99.90
23251;DHT22;11794;49.730;10.088;2022-07-23T06:20:01;20.80;99.90
23251;DHT22;11794;49.730;10.088;2022-07-23T06:22:27;20.70;99.90
23251;DHT22;11794;49.730;10.088;2022-07-23T06:24:52;20.70;99.90
23251;DHT22;11794;49.730;10.088;2022-07-23T06:27:18;20.80;99.90
23251;DHT22;11794;49.730;10.088;2022-07-23T06:29:43;20.70;99.90
23251;DHT22;11794;49.730;10.088;2022-07-23T06:32:09;20.60;99.90
23251;DHT22;11794;49.730;10.088;2022-07-23T06:34:35;20.50;99.90
23251;DHT22;11794;49.730;10.088;2022-07-23T06:37:00;20.60;99.90
23251;DHT22;11794;49.730;10.088;2022-07-23T06:39:26;20.70;99.90
23251;DHT22;11794;49.730;10.088;2022-07-23T06:41:52;21.00;99.90
23251;DHT22;11794;49.730;10.088;2022-07-23T06:44:17;21.10;99.90
23251;DHT22;11794;49.730;10.088;2022-07-23T06:46:43;21.10;99.90
23251;DHT22;11794;49.730;10.088;2022-07-23T06:49:08;21.30;99.90
23251;DHT22;11794;49.730;10.088;2022-07-23T06:51:34;21.50;99.90
23251;DHT22;11794;49.730;10.088;2022-07-23T06:54:00;21.60;99.90
23251;DHT22;11794;49.730;10.088;2022-07-23T06:56:25;21.70;99.90
23251;DHT22;11794;49.730;10.088;2022-07-23T06:58:51;21.70;99.90
23251;DHT22;11794;49.730;10.088;2022-07-23T07:01:16;21.70;99.90
23251;DHT22;11794;49.730;10.088;2022-07-23T07:03:42;21.70;99.90
23251;DHT22;11794;49.730;10.088;2022-07-23T07:06:08;21.60;99.90
23251;DHT22;11794;49.730;10.088;2022-07-23T07:08:33;21.50;99.90
23251;DHT22;11794;49.730;10.088;2022-07-23T07:10:59;21.40;99.90
23251;DHT22;11794;49.730;10.088;2022-07-23T07:13:25;21.30;99.90
23251;DHT22;11794;49.730;10.088;2022-07-23T07:15:50;21.30;99.90
23251;DHT22;11794;49.730;10.088;2022-07-23T07:18:16;21.20;99.90
23251;DHT22;11794;49.730;10.088;2022-07-23T07:20:41;21.10;99.90
23251;DHT22;11794;49.730;10.088;2022-07-23T07:23:07;21.10;99.90
23251;DHT22;11794;49.730;10.088;2022-07-23T07:25:33;21.00;99.90
23251;DHT22;11794;49.730;10.088;2022-07-23T07:27:59;21.10;99.90
23251;DHT22;11794;49.730;10.088;2022-07-23T07:30:24;21.00;99.90
23251;DHT22;11794;49.730;10.088;2022-07-23T07:32:50;21.00;99.90
23251;DHT22;11794;49.730;10.088;2022-07-23T07:35:15;21.10;99.90
23251;DHT22;11794;49.730;10.088;2022-07-23T07:37:41;21.20;99.90
23251;DHT22;11794;49.730;10.088;2022-07-23T07:40:07;21.30;99.90
23251;DHT22;11794;49.730;10.088;2022-07-23T07:42:33;21.50;99.90
23251;DHT22;11794;49.730;10.088;2022-07-23T07:44:59;21.60;99.90
23251;DHT22;11794;49.730;10.088;2022-07-23T07:47:24;21.70;99.90
23251;DHT22;11794;49.730;10.088;2022-07-23T07:49:50;22.10;99.90
23251;DHT22;11794;49.730;10.088;2022-07-23T07:52:15;22.30;99.90
23251;DHT22;11794;49.730;10.088;2022-07-23T07:54:41;22.70;99.90
23251;DHT22;11794;49.730;10.088;2022-07-23T07:57:08;22.90;99.90
23251;DHT22;11794;49.730;10.088;2022-07-23T07:59:33;23.10;99.90
23251;DHT22;11794;49.730;10.088;2022-07-23T08:01:59;23.30;99.90
23251;DHT22;11794;49.730;10.088;2022-07-23T08:04:24;23.40;99.90
23251;DHT22;11794;49.730;10.088;2022-07-23T08:06:50;23.70;99.90
23251;DHT22;11794;49.730;10.088;2022-07-23T08:09:15;23.80;99.90
23251;DHT22;11794;49.730;10.088;2022-07-23T08:11:41;24.00;99.90
23251;DHT22;11794;49.730;10.088;2022-07-23T08:14:06;24.70;99.90
23251;DHT22;11794;49.730;10.088;2022-07-23T08:16:32;25.40;99.90
23251;DHT22;11794;49.730;10.088;2022-07-23T08:18:57;25.60;99.90
23251;DHT22;11794;49.730;10.088;2022-07-23T08:21:23;25.50;99.90
23251;DHT22;11794;49.730;10.088;2022-07-23T08:23:48;25.80;99.90
23251;DHT22;11794;49.730;10.088;2022-07-23T08:26:14;26.40;99.90
23251;DHT22;11794;49.730;10.088;2022-07-23T08:28:39;26.70;99.90
23251;DHT22;11794;49.730;10.088;2022-07-23T08:31:05;26.60;99.90
23251;DHT22;11794;49.730;10.088;2022-07-23T08:33:31;26.40;99.90
23251;DHT22;11794;49.730;10.088;2022-07-23T08:35:57;25.90;99.90
23251;DHT22;11794;49.730;10.088;2022-07-23T08:38:23;25.40;99.90
23251;DHT22;11794;49.730;10.088;2022-07-23T08:40:53;25.10;99.90
23251;DHT22;11794;49.730;10.088;2022-07-23T08:43:23;24.90;99.90
23251;DHT22;11794;49.730;10.088;2022-07-23T08:45:51;24.80;99.90
23251;DHT22;11794;49.730;10.088;2022-07-23T08:48:19;24.90;99.90
23251;DHT22;11794;49.730;10.088;2022-07-23T08:50:47;25.10;99.90
23251;DHT22;11794;49.730;10.088;2022-07-23T08:53:13;25.30;99.90
23251;DHT22;11794;49.730;10.088;2022-07-23T08:55:39;25.40;99.90
23251;DHT22;11794;49.730;10.088;2022-07-23T08:58:06;25.60;99.90
23251;DHT22;11794;49.730;10.088;2022-07-23T09:00:32;25.70;99.90
23251;DHT22;11794;49.730;10.088;2022-07-23T09:02:58;26.30;99.90
23251;DHT22;11794;49.730;10.088;2022-07-23T09:05:24;26.90;99.90
23251;DHT22;11794;49.730;10.088;2022-07-23T09:08:15;26.90;99.90
23251;DHT22;11794;49.730;10.088;2022-07-23T09:10:58;26.80;99.90
23251;DHT22;11794;49.730;10.088;2022-07-23T09:13:38;26.80;99.90
23251;DHT22;11794;49.730;10.088;2022-07-23T09:16:15;26.70;99.90
23251;DHT22;11794;49.730;10.088;2022-07-23T09:28:51;26.30;99.90
23251;DHT22;11794;49.730;10.088;2022-07-23T09:31:18;26.40;99.90
23251;DHT22;11794;49.730;10.088;2022-07-23T09:33:44;26.50;99.90
23251;DHT22;11794;49.730;10.088;2022-07-23T09:36:09;26.50;99.90
23251;DHT22;11794;49.730;10.088;2022-07-23T09:38:48;26.20;99.90
23251;DHT22;11794;49.730;10.088;2022-07-23T09:41:14;26.50;99.90
23251;DHT22;11794;49.730;10.088;2022-07-23T09:43:39;27.20;99.90
23251;DHT22;11794;49.730;10.088;2022-07-23T09:48:48;28.90;99.90
23251;DHT22;11794;49.730;10.088;2022-07-23T09:51:14;29.60;99.90
23251;DHT22;11794;49.730;10.088;2022-07-23T09:53:50;30.00;99.90
23251;DHT22;11794;49.730;10.088;2022-07-23T09:56:16;30.50;99.90
23251;DHT22;11794;49.730;10.088;2022-07-23T09:58:43;30.80;99.90
23251;DHT22;11794;49.730;10.088;2022-07-23T10:01:13;31.10;98.40
23251;DHT22;11794;49.730;10.088;2022-07-23T10:03:40;31.00;98.70
23251;DHT22;11794;49.730;10.088;2022-07-23T10:06:10;30.90;98.00
23251;DHT22;11794;49.730;10.088;2022-07-23T10:08:40;31.10;98.50
23251;DHT22;11794;49.730;10.088;2022-07-23T10:11:07;31.10;98.30
23251;DHT22;11794;49.730;10.088;2022-07-23T10:13:35;31.10;98.10
23251;DHT22;11794;49.730;10.088;2022-07-23T10:16:15;31.10;97.70
23251;DHT22;11794;49.730;10.088;2022-07-23T10:18:41;31.10;97.80
23251;DHT22;11794;49.730;10.088;2022-07-23T10:21:08;31.00;97.10
23251;DHT22;11794;49.730;10.088;2022-07-23T10:23:42;30.70;97.10
23251;DHT22;11794;49.730;10.088;2022-07-23T10:26:19;30.30;97.60
23251;DHT22;11794;49.730;10.088;2022-07-23T10:31:52;30.90;97.30
23251;DHT22;11794;49.730;10.088;2022-07-23T10:37:32;31.40;97.10
23251;DHT22;11794;49.730;10.088;2022-07-23T10:40:13;32.00;96.40
23251;DHT22;11794;49.730;10.088;2022-07-23T10:42:39;31.40;94.60
23251;DHT22;11794;49.730;10.088;2022-07-23T10:45:32;30.90;96.60
23251;DHT22;11794;49.730;10.088;2022-07-23T10:48:15;30.70;96.80
23251;DHT22;11794;49.730;10.088;2022-07-23T10:50:43;30.90;97.00
23251;DHT22;11794;49.730;10.088;2022-07-23T10:53:17;31.30;96.30
23251;DHT22;11794;49.730;10.088;2022-07-23T10:55:46;31.80;94.60
23251;DHT22;11794;49.730;10.088;2022-07-23T10:58:20;32.30;94.30
23251;DHT22;11794;49.730;10.088;2022-07-23T11:00:46;32.60;92.90
23251;DHT22;11794;49.730;10.088;2022-07-23T11:03:33;32.80;92.10
23251;DHT22;11794;49.730;10.088;2022-07-23T11:06:02;33.00;91.00
23251;DHT22;11794;49.730;10.088;2022-07-23T11:08:27;33.20;91.40
23251;DHT22;11794;49.730;10.088;2022-07-23T11:13:35;33.60;90.60
23251;DHT22;11794;49.730;10.088;2022-07-23T11:26:44;34.50;88.30
23251;DHT22;11794;49.730;10.088;2022-07-23T11:34:39;34.90;86.40
23251;DHT22;11794;49.730;10.088;2022-07-23T11:37:07;35.10;86.20
23251;DHT22;11794;49.730;10.088;2022-07-23T11:39:33;35.00;86.90
23251;DHT22;11794;49.730;10.088;2022-07-23T11:41:59;35.20;84.80
23251;DHT22;11794;49.730;10.088;2022-07-23T11:44:30;35.00;86.00
23251;DHT22;11794;49.730;10.088;2022-07-23T11:47:03;34.80;85.60
23251;DHT22;11794;49.730;10.088;2022-07-23T11:49:29;35.20;85.10
23251;DHT22;11794;49.730;10.088;2022-07-23T11:52:14;35.20;83.10
23251;DHT22;11794;49.730;10.088;2022-07-23T11:57:18;35.20;82.40
23251;DHT22;11794;49.730;10.088;2022-07-23T11:59:46;35.40;82.30
23251;DHT22;11794;49.730;10.088;2022-07-23T12:02:13;35.10;80.80
23251;DHT22;11794;49.730;10.088;2022-07-23T12:04:45;34.90;82.40
23251;DHT22;11794;49.730;10.088;2022-07-23T12:09:48;35.40;79.50
23251;DHT22;11794;49.730;10.088;2022-07-23T12:12:14;34.90;81.90
23251;DHT22;11794;49.730;10.088;2022-07-23T12:14:57;34.90;82.50
23251;DHT22;11794;49.730;10.088;2022-07-23T12:17:34;34.40;82.30
23251;DHT22;11794;49.730;10.088;2022-07-23T12:20:01;34.10;83.60
23251;DHT22;11794;49.730;10.088;2022-07-23T12:22:41;33.60;83.70
23251;DHT22;11794;49.730;10.088;2022-07-23T12:25:12;33.00;84.50
23251;DHT22;11794;49.730;10.088;2022-07-23T12:27:38;32.80;85.80
23251;DHT22;11794;49.730;10.088;2022-07-23T12:30:28;32.90;85.60
23251;DHT22;11794;49.730;10.088;2022-07-23T12:32:56;33.70;83.00
23251;DHT22;11794;49.730;10.088;2022-07-23T12:35:23;34.40;80.60
23251;DHT22;11794;49.730;10.088;2022-07-23T12:37:51;34.60;79.30
23251;DHT22;11794;49.730;10.088;2022-07-23T12:40:33;34.80;80.50
23251;DHT22;11794;49.730;10.088;2022-07-23T12:43:06;35.20;79.50
23251;DHT22;11794;49.730;10.088;2022-07-23T12:45:52;35.00;80.00
23251;DHT22;11794;49.730;10.088;2022-07-23T12:50:58;36.10;76.70
23251;DHT22;11794;49.730;10.088;2022-07-23T12:58:43;33.50;82.90
23251;DHT22;11794;49.730;10.088;2022-07-23T13:01:21;32.90;85.10
23251;DHT22;11794;49.730;10.088;2022-07-23T13:06:35;33.40;85.90
23251;DHT22;11794;49.730;10.088;2022-07-23T13:09:02;34.40;83.70
23251;DHT22;11794;49.730;10.088;2022-07-23T13:11:28;35.50;83.60
23251;DHT22;11794;49.730;10.088;2022-07-23T13:13:54;36.70;80.00
23251;DHT22;11794;49.730;10.088;2022-07-23T13:16:19;37.30;79.30
23251;DHT22;11794;49.730;10.088;2022-07-23T13:18:45;38.10;75.60
23251;DHT22;11794;49.730;10.088;2022-07-23T13:21:10;37.60;75.30
23251;DHT22;11794;49.730;10.088;2022-07-23T13:23:36;37.30;72.10
23251;DHT22;11794;49.730;10.088;2022-07-23T13:26:02;36.10;76.20
23251;DHT22;11794;49.730;10.088;2022-07-23T13:28:27;35.20;77.30
23251;DHT22;11794;49.730;10.088;2022-07-23T13:30:53;34.30;79.70
23251;DHT22;11794;49.730;10.088;2022-07-23T13:33:20;33.60;79.50
23251;DHT22;11794;49.730;10.088;2022-07-23T13:35:46;33.10;81.90
23251;DHT22;11794;49.730;10.088;2022-07-23T13:38:12;33.40;83.00
23251;DHT22;11794;49.730;10.088;2022-07-23T13:40:40;33.50;82.20
23251;DHT22;11794;49.730;10.088;2022-07-23T13:43:14;33.40;80.50
23251;DHT22;11794;49.730;10.088;2022-07-23T13:45:40;33.20;81.50
23251;DHT22;11794;49.730;10.088;2022-07-23T13:48:08;32.70;82.50
23251;DHT22;11794;49.730;10.088;2022-07-23T13:50:34;32.20;82.00
23251;DHT22;11794;49.730;10.088;2022-07-23T13:53:02;31.90;82.50
23251;DHT22;11794;49.730;10.088;2022-07-23T13:55:28;32.10;83.70
23251;DHT22;11794;49.730;10.088;2022-07-23T13:57:53;32.10;82.30
23251;DHT22;11794;49.730;10.088;2022-07-23T14:00:19;33.60;78.60
23251;DHT22;11794;49.730;10.088;2022-07-23T14:02:45;35.20;78.70
23251;DHT22;11794;49.730;10.088;2022-07-23T14:05:11;36.20;74.40
23251;DHT22;11794;49.730;10.088;2022-07-23T14:07:37;36.40;73.40
23251;DHT22;11794;49.730;10.088;2022-07-23T14:10:04;36.50;73.60
23251;DHT22;11794;49.730;10.088;2022-07-23T14:12:30;36.40;70.50
23251;DHT22;11794;49.730;10.088;2022-07-23T14:14:55;34.90;72.20
23251;DHT22;11794;49.730;10.088;2022-07-23T14:17:21;33.90;73.60
23251;DHT22;11794;49.730;10.088;2022-07-23T14:19:47;33.10;76.30
23251;DHT22;11794;49.730;10.088;2022-07-23T14:22:12;32.60;79.20
23251;DHT22;11794;49.730;10.088;2022-07-23T14:24:38;32.00;78.10
23251;DHT22;11794;49.730;10.088;2022-07-23T14:27:04;31.60;79.60
23251;DHT22;11794;49.730;10.088;2022-07-23T14:29:30;31.50;79.70
23251;DHT22;11794;49.730;10.088;2022-07-23T14:31:57;31.50;80.50
23251;DHT22;11794;49.730;10.088;2022-07-23T14:34:23;31.60;81.80
23251;DHT22;11794;49.730;10.088;2022-07-23T14:36:48;31.50;81.00
23251;DHT22;11794;49.730;10.088;2022-07-23T14:39:14;31.40;81.20
23251;DHT22;11794;49.730;10.088;2022-07-23T14:41:39;31.40;81.40
23251;DHT22;11794;49.730;10.088;2022-07-23T14:44:05;31.10;80.10
23251;DHT22;11794;49.730;10.088;2022-07-23T14:46:31;30.70;80.20
23251;DHT22;11794;49.730;10.088;2022-07-23T14:48:57;30.60;82.00
23251;DHT22;11794;49.730;10.088;2022-07-23T14:51:22;30.70;81.80
23251;DHT22;11794;49.730;10.088;2022-07-23T14:53:48;30.90;82.00
23251;DHT22;11794;49.730;10.088;2022-07-23T14:56:14;31.00;82.00
23251;DHT22;11794;49.730;10.088;2022-07-23T14:58:40;31.30;81.00
23251;DHT22;11794;49.730;10.088;2022-07-23T15:01:06;31.70;79.50
23251;DHT22;11794;49.730;10.088;2022-07-23T15:03:32;31.70;79.30
23251;DHT22;11794;49.730;10.088;2022-07-23T15:05:58;31.60;78.50
23251;DHT22;11794;49.730;10.088;2022-07-23T15:08:24;31.30;78.90
23251;DHT22;11794;49.730;10.088;2022-07-23T15:10:49;31.00;79.70
23251;DHT22;11794;49.730;10.088;2022-07-23T15:13:15;31.10;80.20
23251;DHT22;11794;49.730;10.088;2022-07-23T15:15:40;31.40;78.60
23251;DHT22;11794;49.730;10.088;2022-07-23T15:18:06;31.60;77.90
23251;DHT22;11794;49.730;10.088;2022-07-23T15:20:31;31.70;78.50
23251;DHT22;11794;49.730;10.088;2022-07-23T15:22:57;31.70;78.50
23251;DHT22;11794;49.730;10.088;2022-07-23T15:25:23;31.70;76.60
23251;DHT22;11794;49.730;10.088;2022-07-23T15:27:49;31.50;75.40
23251;DHT22;11794;49.730;10.088;2022-07-23T15:30:14;31.30;76.30
23251;DHT22;11794;49.730;10.088;2022-07-23T15:32:40;30.90;77.50
23251;DHT22;11794;49.730;10.088;2022-07-23T15:35:06;30.70;78.70
23251;DHT22;11794;49.730;10.088;2022-07-23T15:37:34;30.60;78.40
23251;DHT22;11794;49.730;10.088;2022-07-23T15:40:00;30.70;78.10
23251;DHT22;11794;49.730;10.088;2022-07-23T15:42:25;30.70;79.00
23251;DHT22;11794;49.730;10.088;2022-07-23T15:44:51;30.70;79.20
23251;DHT22;11794;49.730;10.088;2022-07-23T15:47:18;30.60;79.50
23251;DHT22;11794;49.730;10.088;2022-07-23T15:49:44;30.30;77.90
23251;DHT22;11794;49.730;10.088;2022-07-23T15:52:10;30.10;79.70
23251;DHT22;11794;49.730;10.088;2022-07-23T15:54:37;29.90;78.70
23251;DHT22;11794;49.730;10.088;2022-07-23T15:57:03;30.00;80.90
23251;DHT22;11794;49.730;10.088;2022-07-23T15:59:29;30.10;81.00
23251;DHT22;11794;49.730;10.088;2022-07-23T16:01:54;30.20;82.10
23251;DHT22;11794;49.730;10.088;2022-07-23T16:04:20;30.40;79.50
23251;DHT22;11794;49.730;10.088;2022-07-23T16:06:45;30.50;79.10